Time;durP1;ratioP1;P1;durP2;ratioP2;P2;SDS_P1;SDS_P2;PMS_P1;PMS_P2;Temp;Humidity;BMP_temperature;BMP_pressure;BME280_temperature;BME280_humidity;BME280_pressure;Samples;Min_cycle;Max_cycle;Signal;HPM_P1;HPM_P2
2022/08/11 00:00:35;;;;;;;2.25;1.08;;;22.80;81.80;;;;;;5139287;27;20154;-63
2022/08/11 00:03:06;;;;;;;0.85;0.85;;;22.80;81.80;;;;;;5102616;27;20047;-63
2022/08/11 00:05:41;;;;;;;1.92;1.10;;;22.80;81.80;;;;;;5132962;27;20453;-63
2022/08/11 00:08:09;;;;;;;1.65;1.10;;;22.80;81.80;;;;;;5148919;27;20078;-64
2022/08/11 00:10:37;;;;;;;1.38;0.90;;;22.80;81.80;;;;;;5118369;27;20104;-63
2022/08/11 00:13:06;;;;;;;1.65;1.15;;;22.80;81.80;;;;;;5133979;27;20051;-62
2022/08/11 00:15:44;;;;;;;0.80;0.80;;;22.80;81.80;;;;;;5113745;27;20039;-63
2022/08/11 00:18:11;;;;;;;2.35;1.13;;;22.70;81.80;;;;;;5133452;27;20050;-63
2022/08/11 00:20:40;;;;;;;0.95;0.85;;;22.80;81.80;;;;;;5131168;27;20042;-63
2022/08/11 00:23:12;;;;;;;1.08;0.90;;;22.80;81.80;;;;;;5115686;27;20118;-63
2022/08/11 00:25:40;;;;;;;1.60;1.05;;;22.80;81.80;;;;;;5133067;27;20507;-63
2022/08/11 00:28:27;;;;;;;1.40;1.05;;;22.80;81.90;;;;;;5133784;27;20035;-63
2022/08/11 00:30:55;;;;;;;3.85;1.13;;;22.80;81.90;;;;;;5116827;27;20502;-63
2022/08/11 00:33:23;;;;;;;1.52;1.17;;;22.80;81.90;;;;;;5133007;27;20514;-67
2022/08/11 00:35:51;;;;;;;1.30;1.20;;;22.80;81.90;;;;;;5097310;27;20039;-64
2022/08/11 00:38:22;;;;;;;1.50;1.08;;;22.70;81.90;;;;;;5133311;27;20054;-63
2022/08/11 00:40:58;;;;;;;1.50;1.15;;;22.80;81.90;;;;;;5133015;27;20043;-63
2022/08/11 00:43:45;;;;;;;1.27;1.00;;;22.70;81.90;;;;;;5132799;27;20054;-67
2022/08/11 00:46:25;;;;;;;1.23;0.95;;;22.70;81.90;;;;;;5127794;27;20086;-64
2022/08/11 00:48:59;;;;;;;1.38;0.98;;;22.70;81.90;;;;;;5097511;28;20123;-63
2022/08/11 00:51:50;;;;;;;1.63;1.10;;;22.70;81.90;;;;;;5141197;27;20062;-67
2022/08/11 00:54:45;;;;;;;1.33;1.08;;;22.70;81.90;;;;;;5112717;27;20073;-64
2022/08/11 00:57:47;;;;;;;1.48;0.98;;;22.70;82.00;;;;;;5116350;27;20115;-63
2022/08/11 01:00:24;;;;;;;1.67;1.20;;;22.70;82.00;;;;;;5152819;27;20049;-65
2022/08/11 01:03:26;;;;;;;1.33;0.95;;;22.70;81.90;;;;;;5153890;27;20039;-64
2022/08/11 01:06:18;;;;;;;2.38;1.08;;;22.70;81.90;;;;;;5119770;27;20051;-64
2022/08/11 01:09:09;;;;;;;1.63;1.00;;;22.70;82.00;;;;;;5114904;27;20127;-63
2022/08/11 01:12:02;;;;;;;1.10;1.00;;;22.70;82.00;;;;;;5111950;28;20050;-63
2022/08/11 01:14:40;;;;;;;1.10;0.90;;;22.70;82.00;;;;;;5093894;28;20405;-67
2022/08/11 01:17:35;;;;;;;1.75;0.98;;;22.70;82.00;;;;;;5111474;28;20653;-66
2022/08/11 01:20:18;;;;;;;1.85;1.10;;;22.70;82.10;;;;;;5096253;27;20099;-63
2022/08/11 01:28:28;;;;;;;2.10;1.00;;;22.70;82.10;;;;;;5218168;22;20502;-67
2022/08/11 01:31:35;;;;;;;1.73;1.05;;;22.70;82.20;;;;;;5010016;28;20410;-67
2022/08/11 01:34:26;;;;;;;1.83;1.00;;;22.70;82.20;;;;;;5010471;28;20060;-64
2022/08/11 01:37:11;;;;;;;2.15;1.10;;;22.70;82.20;;;;;;4992322;28;20193;-63
2022/08/11 01:40:15;;;;;;;1.45;1.08;;;22.70;82.20;;;;;;4992019;28;20046;-63
2022/08/11 01:46:21;;;;;;;3.05;1.08;;;22.70;82.30;;;;;;4990981;28;20069;-63
2022/08/11 01:48:59;;;;;;;1.80;1.10;;;22.70;82.20;;;;;;4963992;28;20515;-64
2022/08/11 01:52:03;;;;;;;1.63;1.00;;;22.70;82.30;;;;;;5005347;28;20050;-63
2022/08/11 01:54:41;;;;;;;1.42;0.95;;;22.70;82.30;;;;;;5011632;28;20494;-62
2022/08/11 01:57:18;;;;;;;2.10;1.50;;;22.70;82.30;;;;;;5010813;28;20583;-63
2022/08/11 01:59:52;;;;;;;2.17;1.20;;;22.70;82.40;;;;;;5006550;28;20074;-62
2022/08/11 02:02:44;;;;;;;1.02;0.93;;;22.70;82.30;;;;;;4990291;28;20111;-63
2022/08/11 02:05:42;;;;;;;1.58;1.10;;;22.70;82.40;;;;;;4990257;28;20064;-64
2022/08/11 02:09:09;;;;;;;1.52;1.20;;;22.60;82.40;;;;;;4991363;28;20054;-63
2022/08/11 02:11:36;;;;;;;1.25;1.00;;;22.70;82.50;;;;;;4907217;28;20071;-63
2022/08/11 02:14:26;;;;;;;1.77;1.02;;;22.70;82.50;;;;;;5010245;28;20081;-62
2022/08/11 02:17:08;;;;;;;1.33;0.98;;;22.60;82.40;;;;;;4993046;28;20046;-63
2022/08/11 02:26:24;;;;;;;2.00;1.20;;;22.70;82.60;;;;;;5010843;28;20056;-63
2022/08/11 02:29:20;;;;;;;1.73;1.10;;;22.70;82.50;;;;;;4989508;28;20054;-63
2022/08/11 02:35:04;;;;;;;1.58;1.30;;;22.60;82.60;;;;;;5003714;28;20077;-63
2022/08/11 02:37:33;;;;;;;1.27;0.88;;;22.60;82.60;;;;;;5011005;28;20053;-63
2022/08/11 02:40:02;;;;;;;1.02;0.93;;;22.60;82.50;;;;;;4995426;28;20108;-63
2022/08/11 02:42:51;;;;;;;1.40;1.17;;;22.60;82.60;;;;;;4991197;28;20093;-63
2022/08/11 02:45:47;;;;;;;1.25;1.02;;;22.60;82.60;;;;;;4953197;28;20153;-63
2022/08/11 02:52:15;;;;;;;1.75;0.98;;;22.60;82.70;;;;;;4991714;28;20050;-63
2022/08/11 02:55:17;;;;;;;1.15;1.00;;;22.60;82.60;;;;;;4971019;28;20054;-63
2022/08/11 02:58:02;;;;;;;1.67;1.20;;;22.60;82.70;;;;;;5010758;28;20088;-63
2022/08/11 03:00:32;;;;;;;1.50;0.88;;;22.60;82.60;;;;;;5009276;28;20104;-62
2022/08/11 03:03:16;;;;;;;1.27;0.90;;;22.60;82.60;;;;;;5014257;28;20052;-63
2022/08/11 03:06:04;;;;;;;1.30;0.93;;;22.60;82.80;;;;;;5013769;28;20065;-63
2022/08/11 03:08:53;;;;;;;1.27;1.10;;;22.60;82.70;;;;;;4993026;28;20134;-64
2022/08/11 03:18:01;;;;;;;1.10;1.00;;;22.60;82.80;;;;;;4994497;28;20061;-63
2022/08/11 03:20:41;;;;;;;1.65;1.27;;;22.60;82.80;;;;;;5009630;28;20056;-65
2022/08/11 03:23:28;;;;;;;0.95;0.88;;;22.60;82.80;;;;;;5013946;28;20057;-63
2022/08/11 03:26:19;;;;;;;1.73;0.95;;;22.60;82.80;;;;;;5014143;28;20450;-63
2022/08/11 03:29:14;;;;;;;1.92;0.93;;;22.60;82.80;;;;;;4975223;28;20095;-63
2022/08/11 03:31:54;;;;;;;1.05;0.93;;;22.60;82.90;;;;;;4961710;28;20078;-63
2022/08/11 03:34:25;;;;;;;2.40;1.08;;;22.60;82.90;;;;;;4954621;28;20061;-64
2022/08/11 03:43:31;;;;;;;2.25;1.05;;;22.60;83.00;;;;;;4955127;29;20109;-63
2022/08/11 03:45:57;;;;;;;1.42;0.88;;;22.60;82.90;;;;;;4954523;28;20093;-65
2022/08/11 03:48:38;;;;;;;1.25;0.98;;;22.60;82.90;;;;;;4955112;29;20079;-63
2022/08/11 03:51:22;;;;;;;0.95;0.80;;;22.60;83.00;;;;;;4961605;28;20519;-63
2022/08/11 03:54:17;;;;;;;1.33;1.00;;;22.60;83.00;;;;;;4974464;28;20503;-63
2022/08/11 03:57:09;;;;;;;1.58;0.95;;;22.50;83.00;;;;;;4955133;28;20091;-63
2022/08/11 03:59:41;;;;;;;1.35;1.00;;;22.60;83.00;;;;;;4972650;28;20042;-64
2022/08/11 04:02:36;;;;;;;1.13;1.00;;;22.50;83.00;;;;;;4973467;28;20085;-68
2022/08/11 04:05:20;;;;;;;2.40;0.90;;;22.50;83.00;;;;;;4945550;28;20097;-63
2022/08/11 04:08:07;;;;;;;1.70;1.08;;;22.50;83.10;;;;;;4974529;28;20101;-63
2022/08/11 04:11:03;;;;;;;1.38;0.93;;;22.50;83.10;;;;;;4964491;28;20038;-63
2022/08/11 04:17:18;;;;;;;1.13;0.82;;;22.50;83.10;;;;;;4973075;28;20062;-64
2022/08/11 04:20:08;;;;;;;1.27;0.90;;;22.50;83.10;;;;;;4961197;28;20123;-63
2022/08/11 04:22:53;;;;;;;1.25;0.95;;;22.50;83.10;;;;;;4954744;29;20110;-63
2022/08/11 04:25:53;;;;;;;2.25;1.27;;;22.50;83.10;;;;;;4954281;28;20483;-63
2022/08/11 04:28:42;;;;;;;1.88;0.80;;;22.50;83.20;;;;;;4990941;28;20065;-64
2022/08/11 04:31:32;;;;;;;0.95;0.90;;;22.50;83.20;;;;;;4973174;28;20558;-63
2022/08/11 04:34:22;;;;;;;1.60;0.98;;;22.50;83.20;;;;;;4996038;28;20062;-64
2022/08/11 04:37:33;;;;;;;1.15;1.00;;;22.50;83.20;;;;;;4993484;28;20046;-63
2022/08/11 04:40:37;;;;;;;1.92;0.90;;;22.50;83.20;;;;;;4992860;28;20050;-64
2022/08/11 04:43:21;;;;;;;1.10;0.85;;;22.50;83.30;;;;;;4993229;28;20141;-63
2022/08/11 04:46:02;;;;;;;2.33;1.02;;;22.50;83.20;;;;;;4992114;28;20109;-63
2022/08/11 05:01:39;;;;;;;1.65;0.95;;;22.50;83.30;;;;;;4993208;28;20065;-63
2022/08/11 05:01:45;;;;;;;1.02;0.70;;;22.50;83.30;;;;;;5003173;28;20088;-63
2022/08/11 05:08:00;;;;;;;1.25;0.90;;;22.50;83.40;;;;;;5011808;28;19972;-63
2022/08/11 05:10:57;;;;;;;1.17;0.80;;;22.50;83.30;;;;;;5011422;28;20083;-63
2022/08/11 05:37:06;;;;;;;0.85;0.77;;;22.60;83.30;;;;;;5011830;28;20155;-63
2022/08/11 05:56:55;;;;;;;1.02;0.82;;;22.60;83.30;;;;;;4991006;28;20645;-63
2022/08/11 05:59:23;;;;;;;0.70;0.70;;;22.60;83.30;;;;;;4990683;28;20053;-63
2022/08/11 06:01:49;;;;;;;1.08;0.88;;;22.60;83.20;;;;;;4972930;28;20408;-63
2022/08/11 06:04:21;;;;;;;0.68;0.63;;;22.60;83.30;;;;;;4994138;28;20487;-63
2022/08/11 06:07:08;;;;;;;0.98;0.82;;;22.70;83.30;;;;;;4991769;28;20046;-64
2022/08/11 06:09:46;;;;;;;0.80;0.80;;;22.60;83.30;;;;;;4992268;28;20050;-63
2022/08/11 06:12:31;;;;;;;0.98;0.70;;;22.70;83.30;;;;;;5002691;28;20100;-64
2022/08/11 06:15:01;;;;;;;1.08;0.75;;;22.70;83.30;;;;;;4991589;28;20054;-63
2022/08/11 06:17:32;;;;;;;0.73;0.60;;;22.70;83.90;;;;;;4990107;28;20116;-64
2022/08/11 06:20:00;;;;;;;1.08;0.82;;;22.70;83.30;;;;;;4990454;28;20094;-62
2022/08/11 06:22:27;;;;;;;0.95;0.80;;;22.70;83.30;;;;;;4984462;28;20475;-63
2022/08/11 06:24:58;;;;;;;0.60;0.60;;;22.70;83.30;;;;;;5011186;28;20499;-63
2022/08/11 06:27:25;;;;;;;0.55;0.43;;;22.70;83.30;;;;;;5009923;28;20050;-63
2022/08/11 06:29:53;;;;;;;0.88;0.80;;;22.70;83.30;;;;;;5010895;28;20058;-61
2022/08/11 06:32:22;;;;;;;0.75;0.75;;;22.70;83.30;;;;;;5009980;28;20395;-64
2022/08/11 06:35:28;;;;;;;0.88;0.80;;;22.70;83.30;;;;;;5009599;28;20085;-63
2022/08/11 06:38:31;;;;;;;0.73;0.73;;;22.70;83.30;;;;;;5000187;28;20100;-64
2022/08/11 06:44:11;;;;;;;0.70;0.70;;;22.80;83.30;;;;;;5009533;28;20131;-63
2022/08/11 06:46:42;;;;;;;0.65;0.65;;;22.80;83.30;;;;;;4972922;28;20480;-63
2022/08/11 06:51:57;;;;;;;;;;;22.70;83.20;;;;;;4997927;28;20056;-63
2022/08/11 06:54:24;;;;;;;0.65;0.60;;;22.80;83.40;;;;;;5010750;28;19925;-66
2022/08/11 07:02:32;;;;;;;0.80;0.80;;;22.80;83.20;;;;;;5009695;28;20058;-63
2022/08/11 07:05:22;;;;;;;0.60;0.60;;;22.80;83.20;;;;;;5009886;28;20553;-63
2022/08/11 07:16:52;;;;;;;0.80;0.80;;;22.80;83.10;;;;;;5005322;28;20046;-63
2022/08/11 07:30:45;;;;;;;1.80;0.80;;;22.90;83.10;;;;;;4993443;28;20047;-64
2022/08/11 07:33:18;;;;;;;1.00;0.88;;;22.90;83.10;;;;;;4990611;28;20050;-63
2022/08/11 07:35:56;;;;;;;0.77;0.77;;;22.80;83.10;;;;;;4989402;28;20081;-63
2022/08/11 07:38:42;;;;;;;0.63;0.63;;;22.90;83.20;;;;;;5000432;28;20509;-63
2022/08/11 07:41:16;;;;;;;0.43;0.43;;;22.80;83.10;;;;;;5007602;28;20050;-62
2022/08/11 07:43:47;;;;;;;0.80;0.65;;;22.90;83.20;;;;;;4996959;28;20050;-63
2022/08/11 07:54:31;;;;;;;0.95;0.80;;;22.90;83.10;;;;;;5010000;28;20057;-66
2022/08/11 07:56:57;;;;;;;0.73;0.70;;;22.90;83.10;;;;;;4994516;28;20052;-62
2022/08/11 08:18:42;;;;;;;0.90;0.85;;;23.00;83.10;;;;;;5011888;28;20115;-65
2022/08/11 08:21:11;;;;;;;1.33;0.85;;;22.90;83.00;;;;;;5010943;28;20104;-65
2022/08/11 08:23:43;;;;;;;5.90;1.42;;;22.90;83.00;;;;;;5011828;28;20046;-62
2022/08/11 08:31:49;;;;;;;1.40;0.90;;;23.00;83.00;;;;;;5005285;28;20119;-64
2022/08/11 08:34:16;;;;;;;1.85;1.15;;;23.00;82.90;;;;;;4994898;28;20081;-62
2022/08/11 08:36:49;;;;;;;0.98;0.90;;;23.00;82.90;;;;;;5012411;28;20107;-62
2022/08/11 08:39:19;;;;;;;3.13;1.05;;;23.00;82.80;;;;;;5012713;28;20057;-62
2022/08/11 08:41:49;;;;;;;1.67;1.02;;;23.00;82.90;;;;;;5012027;28;20050;-63
2022/08/11 08:44:18;;;;;;;0.88;0.82;;;23.00;82.80;;;;;;5012624;28;20128;-62
2022/08/11 08:46:48;;;;;;;1.17;1.00;;;23.00;82.80;;;;;;5011015;28;20046;-63
2022/08/11 08:49:17;;;;;;;2.72;1.00;;;23.00;82.80;;;;;;5004351;28;20399;-62
2022/08/11 08:51:45;;;;;;;2.10;1.00;;;23.00;82.80;;;;;;4994160;28;20578;-62
2022/08/11 08:54:16;;;;;;;1.05;0.80;;;23.00;82.80;;;;;;5001733;28;20046;-63
2022/08/11 08:56:43;;;;;;;1.40;0.90;;;23.00;82.70;;;;;;4992201;28;20101;-62
2022/08/11 08:59:12;;;;;;;1.85;0.90;;;23.00;82.80;;;;;;4992454;28;20046;-62
2022/08/11 09:01:54;;;;;;;1.77;1.00;;;23.00;82.70;;;;;;4994529;28;20457;-60
2022/08/11 09:04:20;;;;;;;3.30;1.13;;;23.00;82.70;;;;;;5002041;28;20050;-62
2022/08/11 09:06:47;;;;;;;2.13;1.42;;;23.10;82.80;;;;;;4999640;28;20058;-62
2022/08/11 09:09:13;;;;;;;3.28;1.20;;;23.10;82.80;;;;;;5006223;28;20085;-62
2022/08/11 09:11:53;;;;;;;4.70;1.13;;;23.10;82.70;;;;;;5010158;28;20111;-65
2022/08/11 09:17:20;;;;;;;2.88;1.25;;;23.20;82.80;;;;;;5010349;28;20092;-62
2022/08/11 09:19:47;;;;;;;2.15;1.10;;;23.20;82.80;;;;;;5009722;28;20052;-61
2022/08/11 09:27:49;;;;;;;;;;;23.30;82.80;;;;;;5003423;28;20066;-62
2022/08/11 09:30:15;;;;;;;1.23;1.00;;;23.40;83.10;;;;;;5010209;28;19921;-61
2022/08/11 09:32:41;;;;;;;1.42;1.20;;;23.40;82.80;;;;;;5011192;28;20489;-62
2022/08/11 09:35:08;;;;;;;1.17;1.02;;;23.40;82.70;;;;;;5003800;28;20057;-61
2022/08/11 09:40:28;;;;;;;1.10;0.93;;;23.40;82.70;;;;;;4991009;28;20089;-61
2022/08/11 09:45:50;;;;;;;1.10;1.00;;;23.50;82.60;;;;;;4998456;28;20589;-65
2022/08/11 09:48:21;;;;;;;1.45;1.10;;;23.50;82.60;;;;;;4999547;28;20453;-62
2022/08/11 09:50:53;;;;;;;1.52;1.20;;;23.50;82.60;;;;;;4991670;28;20038;-61
2022/08/11 09:53:21;;;;;;;0.90;0.90;;;23.50;82.60;;;;;;5008167;28;20042;-61
2022/08/11 09:55:48;;;;;;;1.95;1.00;;;23.50;82.60;;;;;;5009939;28;20046;-65
2022/08/11 09:58:17;;;;;;;3.15;1.60;;;23.50;82.50;;;;;;5010920;28;20046;-61
2022/08/11 10:00:46;;;;;;;1.90;1.10;;;23.60;82.50;;;;;;4992179;28;20056;-61
2022/08/11 10:03:14;;;;;;;1.45;1.10;;;23.50;82.40;;;;;;5004282;28;20054;-61
2022/08/11 10:08:32;;;;;;;1.58;1.10;;;23.60;82.50;;;;;;5008274;28;20108;-61
2022/08/11 10:10:58;;;;;;;1.20;1.10;;;23.60;82.40;;;;;;5009054;28;20057;-61
2022/08/11 10:13:33;;;;;;;1.23;1.08;;;23.60;82.50;;;;;;5010689;28;20120;-62
2022/08/11 10:16:07;;;;;;;1.10;0.95;;;23.60;82.40;;;;;;5008809;28;20104;-61
2022/08/11 10:18:51;;;;;;;4.63;1.23;;;23.60;82.40;;;;;;5010726;28;20053;-61
2022/08/11 10:26:48;;;;;;;1.45;1.20;;;23.60;82.40;;;;;;5009947;28;20045;-61
2022/08/11 10:27:15;;;;;;;1.33;0.88;;;23.60;82.30;;;;;;5009116;28;20529;-62
2022/08/11 10:35:15;;;;;;;1.33;1.00;;;23.60;82.20;;;;;;4994973;28;20076;-62
2022/08/11 10:37:44;;;;;;;1.88;1.48;;;23.60;82.10;;;;;;4990856;28;20046;-62
2022/08/11 10:40:14;;;;;;;1.05;1.00;;;23.60;82.10;;;;;;4989859;28;20038;-63
2022/08/11 10:48:11;;;;;;;1.63;1.27;;;23.60;82.10;;;;;;4989604;28;20171;-62
2022/08/11 10:58:55;;;;;;;1.70;1.10;;;23.60;82.00;;;;;;5006168;28;20506;-65
2022/08/11 11:01:31;;;;;;;3.42;1.13;;;23.60;82.00;;;;;;5006629;28;20446;-62
2022/08/11 11:04:10;;;;;;;3.05;1.20;;;23.60;82.00;;;;;;5008728;28;20053;-62
2022/08/11 11:06:47;;;;;;;1.25;1.10;;;23.60;82.00;;;;;;5008113;28;20446;-62
2022/08/11 11:09:37;;;;;;;3.85;1.00;;;23.60;82.00;;;;;;5008725;28;20562;-62
2022/08/11 11:18:00;;;;;;;1.45;1.08;;;23.60;82.00;;;;;;5006620;28;20107;-63
2022/08/11 11:20:49;;;;;;;2.63;0.88;;;23.60;82.00;;;;;;5004768;28;20034;-63
2022/08/11 11:23:24;;;;;;;3.33;1.63;;;23.60;82.00;;;;;;4990250;28;20518;-63
2022/08/11 11:26:27;;;;;;;1.40;1.10;;;23.60;81.90;;;;;;4993137;28;20431;-62
2022/08/11 11:29:14;;;;;;;0.90;0.90;;;23.60;82.00;;;;;;4994400;28;20081;-62
2022/08/11 11:32:10;;;;;;;1.13;0.90;;;23.60;81.90;;;;;;4993175;28;20161;-62
2022/08/11 11:35:01;;;;;;;1.00;0.90;;;23.60;81.90;;;;;;5011351;28;20042;-62
2022/08/11 11:37:33;;;;;;;1.08;0.93;;;23.60;81.90;;;;;;5007700;28;20041;-62
2022/08/11 11:39:59;;;;;;;3.45;1.20;;;23.60;81.80;;;;;;4994847;28;20479;-63
2022/08/11 11:42:26;;;;;;;1.52;1.10;;;23.60;81.70;;;;;;5004859;28;20108;-62
2022/08/11 11:44:52;;;;;;;13.57;2.03;;;23.70;81.70;;;;;;5007143;28;20438;-61
2022/08/11 11:47:21;;;;;;;6.75;1.52;;;23.60;81.60;;;;;;5006584;28;20112;-61
2022/08/11 11:49:48;;;;;;;3.22;1.90;;;23.60;81.50;;;;;;5009023;28;20077;-61
2022/08/11 11:52:19;;;;;;;4.18;1.20;;;23.70;81.60;;;;;;5008928;28;20050;-62
2022/08/11 11:54:54;;;;;;;3.40;1.60;;;23.70;81.50;;;;;;5008608;28;20067;-62
2022/08/11 12:02:57;;;;;;;6.55;1.80;;;23.70;81.50;;;;;;5008519;28;20115;-61
2022/08/11 12:05:23;;;;;;;2.72;1.25;;;23.70;81.50;;;;;;4993357;28;20120;-62
2022/08/11 12:10:35;;;;;;;2.63;1.38;;;23.60;81.40;;;;;;5003589;28;20509;-62
2022/08/11 12:15:47;;;;;;;1.45;1.10;;;23.60;81.30;;;;;;5005208;28;20053;-61
2022/08/11 12:18:15;;;;;;;2.45;1.40;;;23.60;81.30;;;;;;5008609;28;20093;-62
2022/08/11 12:20:43;;;;;;;2.78;1.38;;;23.60;81.20;;;;;;5008975;28;20050;-62
2022/08/11 12:28:38;;;;;;;2.28;0.98;;;23.70;81.10;;;;;;4990553;28;20142;-62
2022/08/11 12:31:08;;;;;;;3.88;1.33;;;23.70;81.10;;;;;;5010938;28;20053;-62
2022/08/11 12:33:39;;;;;;;1.40;1.08;;;23.70;81.00;;;;;;5012569;28;20089;-62
2022/08/11 12:36:08;;;;;;;1.70;1.20;;;23.60;81.00;;;;;;4991795;28;20399;-62
2022/08/11 12:38:35;;;;;;;2.40;1.30;;;23.70;81.00;;;;;;4993517;28;20050;-62
2022/08/11 12:46:36;;;;;;;1.88;1.05;;;23.70;81.00;;;;;;4996257;28;20054;-62
2022/08/11 12:52:17;;;;;;;1.30;1.00;;;23.70;80.90;;;;;;5008626;28;20499;-64
2022/08/11 12:54:57;;;;;;;2.30;1.40;;;23.70;80.90;;;;;;5006951;28;20050;-61
2022/08/11 13:05:58;;;;;;;2.13;1.35;;;23.70;80.80;;;;;;5011664;28;20100;-62
2022/08/11 13:08:26;;;;;;;1.33;1.08;;;23.60;80.70;;;;;;5012064;28;20046;-62
2022/08/11 13:13:42;;;;;;;1.98;1.20;;;23.70;80.70;;;;;;5012372;28;20060;-61
2022/08/11 13:16:09;;;;;;;1.60;0.98;;;23.60;80.60;;;;;;4989609;28;20060;-63
2022/08/11 13:18:36;;;;;;;1.15;1.00;;;23.60;80.60;;;;;;5010029;28;20053;-61
2022/08/11 13:21:02;;;;;;;1.10;1.02;;;23.60;80.60;;;;;;4991227;28;20482;-63
2022/08/11 13:23:29;;;;;;;2.00;1.30;;;23.60;80.60;;;;;;5006850;28;20046;-62
2022/08/11 13:25:55;;;;;;;4.65;1.25;;;23.60;80.60;;;;;;5004208;28;20458;-61
2022/08/11 13:28:22;;;;;;;2.22;1.20;;;23.70;80.40;;;;;;4998222;28;20060;-62
2022/08/11 13:33:50;;;;;;;3.10;0.90;;;23.70;80.20;;;;;;5004712;28;20137;-60
2022/08/11 13:36:24;;;;;;;4.03;1.30;;;23.70;80.00;;;;;;4999911;28;20057;-61
2022/08/11 13:38:52;;;;;;;1.60;1.10;;;23.70;79.90;;;;;;5011813;28;20437;-61
2022/08/11 13:44:05;;;;;;;1.95;1.17;;;23.70;79.70;;;;;;4994799;28;20085;-63
2022/08/11 13:46:32;;;;;;;1.98;1.23;;;23.70;79.70;;;;;;5009039;28;20585;-61
2022/08/11 13:48:59;;;;;;;1.35;1.13;;;23.60;79.50;;;;;;5010730;28;20104;-61
2022/08/11 13:51:32;;;;;;;2.00;1.00;;;23.70;79.50;;;;;;5010434;28;20080;-61
2022/08/11 13:54:09;;;;;;;6.63;1.52;;;23.70;79.50;;;;;;5011211;28;20049;-61
2022/08/11 13:56:40;;;;;;;1.00;0.93;;;23.70;79.40;;;;;;5009847;28;20041;-61
2022/08/11 13:59:07;;;;;;;3.20;1.13;;;23.70;79.40;;;;;;5010721;28;20041;-64
2022/08/11 14:01:39;;;;;;;1.10;1.00;;;23.70;79.30;;;;;;5009995;28;20038;-61
2022/08/11 14:04:10;;;;;;;1.52;1.00;;;23.70;79.30;;;;;;5004231;28;20086;-62
2022/08/11 14:06:39;;;;;;;1.30;0.98;;;23.70;79.20;;;;;;4991176;28;20406;-61
2022/08/11 14:09:08;;;;;;;0.80;0.80;;;23.70;79.20;;;;;;5008937;28;20042;-62
2022/08/11 14:14:22;;;;;;;1.60;1.00;;;23.70;79.20;;;;;;5007516;28;20108;-61
2022/08/11 14:16:50;;;;;;;1.20;1.08;;;23.70;79.20;;;;;;5009753;28;20053;-63
2022/08/11 14:19:20;;;;;;;0.85;0.85;;;23.70;79.10;;;;;;5007921;28;20125;-61
2022/08/11 14:24:39;;;;;;;1.90;1.20;;;23.70;79.10;;;;;;5007984;28;20053;-61
2022/08/11 14:27:07;;;;;;;1.13;0.90;;;23.70;79.10;;;;;;5008329;28;20045;-62
2022/08/11 14:29:37;;;;;;;2.10;1.10;;;23.70;79.10;;;;;;5007483;28;20049;-61
2022/08/11 14:32:10;;;;;;;1.42;1.08;;;23.70;79.10;;;;;;5007873;28;20045;-62
2022/08/11 14:34:39;;;;;;;0.60;0.60;;;23.70;79.00;;;;;;5006941;28;20049;-61
2022/08/11 14:37:14;;;;;;;0.70;0.70;;;23.70;79.00;;;;;;5007870;28;20054;-62
2022/08/11 14:39:44;;;;;;;1.50;1.00;;;23.70;79.00;;;;;;5007389;28;20045;-62
2022/08/11 14:48:07;;;;;;;1.08;0.90;;;23.70;79.00;;;;;;5008610;28;20112;-62
2022/08/11 14:50:33;;;;;;;1.15;1.02;;;23.70;79.00;;;;;;5008304;28;20069;-61
2022/08/11 14:53:06;;;;;;;1.35;1.00;;;23.70;79.00;;;;;;5009711;28;20042;-62
2022/08/11 14:58:29;;;;;;;1.10;0.98;;;23.70;78.90;;;;;;5004059;28;20072;-62
2022/08/11 15:00:59;;;;;;;1.88;1.10;;;23.60;78.80;;;;;;5011404;28;20417;-61
2022/08/11 15:03:29;;;;;;;0.77;0.57;;;23.70;78.90;;;;;;4998638;28;20045;-62
2022/08/11 15:05:58;;;;;;;0.75;0.70;;;23.70;78.80;;;;;;4993606;28;20050;-61
2022/08/11 15:08:53;;;;;;;1.33;0.98;;;23.70;79.40;;;;;;5013188;28;20133;-61
2022/08/11 15:14:13;;;;;;;1.63;0.88;;;23.70;78.70;;;;;;5014247;28;20164;-61
2022/08/11 15:19:29;;;;;;;0.93;0.90;;;23.70;78.70;;;;;;4995189;28;20104;-61
2022/08/11 15:24:39;;;;;;;1.20;0.77;;;23.70;78.70;;;;;;5013440;28;20061;-61
2022/08/11 15:38:24;;;;;;;1.77;0.80;;;23.70;78.60;;;;;;4982865;28;20049;-62
2022/08/11 15:46:30;;;;;;;0.60;0.60;;;23.70;78.50;;;;;;5002517;28;20054;-62
2022/08/11 15:49:00;;;;;;;1.35;1.00;;;23.70;78.50;;;;;;5013244;28;20116;-62
2022/08/11 15:51:40;;;;;;;0.65;0.63;;;23.70;78.50;;;;;;5013181;28;20041;-63
2022/08/11 15:54:18;;;;;;;0.75;0.60;;;23.70;78.50;;;;;;5006430;28;20127;-61
2022/08/11 15:56:47;;;;;;;0.80;0.80;;;23.70;78.40;;;;;;5012204;28;20038;-61
2022/08/11 16:04:45;;;;;;;0.82;0.70;;;23.70;78.50;;;;;;5007095;28;20050;-62
2022/08/11 16:07:25;;;;;;;0.80;0.77;;;23.70;78.50;;;;;;4993885;28;20053;-61
2022/08/11 16:09:56;;;;;;;1.17;0.93;;;23.70;78.50;;;;;;4993900;28;20049;-61
2022/08/11 16:18:24;;;;;;;0.60;0.60;;;23.70;78.40;;;;;;5013142;28;20641;-65
2022/08/11 16:20:54;;;;;;;0.77;0.77;;;23.70;78.40;;;;;;5011973;28;20077;-61
2022/08/11 16:23:24;;;;;;;1.88;0.93;;;23.70;78.30;;;;;;5013048;28;20471;-64
2022/08/11 16:25:52;;;;;;;1.05;0.85;;;23.70;78.30;;;;;;5007151;28;20046;-62
2022/08/11 16:28:20;;;;;;;0.82;0.70;;;23.70;78.30;;;;;;5000791;28;20275;-60
2022/08/11 16:30:47;;;;;;;1.42;1.00;;;23.70;78.30;;;;;;4999627;28;20097;-61
2022/08/11 16:33:14;;;;;;;2.05;0.77;;;23.70;78.30;;;;;;5012515;28;20046;-62
2022/08/11 16:38:38;;;;;;;2.03;0.88;;;23.70;78.30;;;;;;5008869;28;20104;-61
2022/08/11 16:41:09;;;;;;;1.13;0.90;;;23.70;78.20;;;;;;5010095;28;20088;-61
2022/08/11 16:49:18;;;;;;;1.25;0.95;;;23.80;77.30;;;;;;4997182;28;20451;-62
2022/08/11 16:51:44;;;;;;;1.65;1.15;;;23.80;77.20;;;;;;4992244;28;20100;-62
2022/08/11 16:54:10;;;;;;;2.13;0.90;;;23.80;77.20;;;;;;4992984;28;20050;-62
2022/08/11 16:56:43;;;;;;;1.38;0.90;;;23.80;77.20;;;;;;4992283;28;20053;-63
2022/08/11 16:59:32;;;;;;;0.80;0.80;;;23.80;77.20;;;;;;4992825;28;20086;-61
2022/08/11 17:02:06;;;;;;;1.67;1.10;;;23.80;77.20;;;;;;4991047;28;20113;-61
2022/08/11 17:13:09;;;;;;;2.53;0.90;;;23.80;76.60;;;;;;5009970;28;19972;-61
2022/08/11 17:16:07;;;;;;;2.13;1.30;;;23.80;77.10;;;;;;5004147;28;20057;-61
2022/08/11 17:18:39;;;;;;;3.03;1.13;;;23.80;77.00;;;;;;4999912;28;20096;-60
2022/08/11 17:21:17;;;;;;;1.45;1.10;;;23.80;76.90;;;;;;5011169;28;20092;-61
2022/08/11 17:23:48;;;;;;;1.55;1.10;;;23.80;76.90;;;;;;4994019;28;20080;-61
2022/08/11 17:26:57;;;;;;;2.38;1.42;;;23.80;77.10;;;;;;4961053;28;20050;-61
2022/08/11 17:29:34;;;;;;;2.05;1.27;;;23.80;76.30;;;;;;4988544;28;20061;-61
2022/08/11 17:37:36;;;;;;;2.90;1.40;;;23.80;76.60;;;;;;5011294;28;20064;-62
2022/08/11 17:40:05;;;;;;;2.08;1.10;;;23.80;76.50;;;;;;5011176;28;20502;-61
2022/08/11 17:50:51;;;;;;;2.58;1.00;;;23.80;76.50;;;;;;4990542;28;20197;-61
2022/08/11 18:01:37;;;;;;;1.88;1.30;;;23.80;76.30;;;;;;5007410;28;20053;-61
2022/08/11 18:04:05;;;;;;;1.10;1.00;;;23.80;76.30;;;;;;5010131;28;20055;-62
2022/08/11 18:06:33;;;;;;;1.30;1.05;;;23.80;76.30;;;;;;4993192;28;20050;-63
